Time;durP1;ratioP1;P1;durP2;ratioP2;P2;SDS_P1;SDS_P2;PMS_P1;PMS_P2;Temp;Humidity;BMP_temperature;BMP_pressure;BME280_temperature;BME280_humidity;BME280_pressure;Samples;Min_cycle;Max_cycle;Signal;HPM_P1;HPM_P2
2021/12/16 00:08:21;;;;;;;28.13;17.05;;;;;;;;;;5095274;28;20435;-80
2021/12/16 00:11:08;;;;;;;25.63;16.58;;;;;;;;;;5095495;28;20047;-81
2021/12/16 00:35:36;;;;;;;27.92;17.85;;;;;;;;;;5097182;28;20096;-81
2021/12/16 00:38:03;;;;;;;31.00;17.90;;;;;;;;;;5080111;28;20455;-80
2021/12/16 00:40:29;;;;;;;29.38;18.48;;;;;;;;;;5115250;28;20050;-81
2021/12/16 00:43:01;;;;;;;28.58;17.48;;;;;;;;;;5096863;28;20044;-81
2021/12/16 00:48:01;;;;;;;29.08;18.20;;;;;;;;;;5114741;28;20039;-79
2021/12/16 00:55:50;;;;;;;29.55;18.60;;;;;;;;;;5114724;28;20071;-81
2021/12/16 00:58:19;;;;;;;30.63;18.63;;;;;;;;;;5114530;28;20044;-81
2021/12/16 01:00:54;;;;;;;28.20;17.90;;;;;;;;;;5114773;28;20377;-80
2021/12/16 01:03:29;;;;;;;27.88;18.92;;;;;;;;;;5114844;28;20384;-81
2021/12/16 01:06:16;;;;;;;25.75;17.30;;;;;;;;;;5114663;28;20035;-81
2021/12/16 01:59:23;;;;;;;35.90;22.05;;;;;;;;;;5113459;28;20044;-81
2021/12/16 02:01:52;;;;;;;36.35;21.88;;;;;;;;;;5095060;28;20043;-81
2021/12/16 02:04:27;;;;;;;38.63;23.00;;;;;;;;;;5095187;28;20052;-81
2021/12/16 02:07:08;;;;;;;37.10;22.95;;;;;;;;;;5113298;28;20047;-81
2021/12/16 02:09:39;;;;;;;36.47;22.30;;;;;;;;;;5113311;28;20126;-81
2021/12/16 02:12:18;;;;;;;43.05;23.45;;;;;;;;;;5095273;28;20079;-80
2021/12/16 02:36:49;;;;;;;37.17;22.98;;;;;;;;;;5094273;28;20396;-80
2021/12/16 02:39:08;;;;;;;36.33;22.33;;;;;;;;;;5090743;28;20044;-81
2021/12/16 02:41:34;;;;;;;37.90;22.00;;;;;;;;;;5112959;28;20040;-79
2021/12/16 02:44:20;;;;;;;36.92;22.73;;;;;;;;;;5112879;28;20035;-80
2021/12/16 02:49:34;;;;;;;36.42;22.60;;;;;;;;;;5112633;28;20097;-80
2021/12/16 02:52:00;;;;;;;38.08;22.60;;;;;;;;;;5112860;28;20430;-81
2021/12/16 02:54:27;;;;;;;36.88;23.33;;;;;;;;;;5094658;28;20504;-81
2021/12/16 02:56:54;;;;;;;39.50;22.17;;;;;;;;;;5112686;28;20039;-79
2021/12/16 02:59:25;;;;;;;37.58;21.45;;;;;;;;;;5112434;28;20062;-81
2021/12/16 03:01:52;;;;;;;32.75;22.02;;;;;;;;;;5112517;28;20503;-81
2021/12/16 03:04:20;;;;;;;41.10;22.50;;;;;;;;;;5112841;28;20036;-81
2021/12/16 03:06:47;;;;;;;37.75;21.75;;;;;;;;;;5112671;28;20388;-81
2021/12/16 03:09:16;;;;;;;36.85;22.05;;;;;;;;;;5112653;28;20491;-81
2021/12/16 03:19:31;;;;;;;36.47;22.15;;;;;;;;;;5116534;28;20043;-80
2021/12/16 03:22:00;;;;;;;41.75;23.08;;;;;;;;;;5116594;28;20088;-80
2021/12/16 03:27:34;;;;;;;38.78;22.40;;;;;;;;;;5116569;28;20392;-81
2021/12/16 03:30:21;;;;;;;37.60;21.92;;;;;;;;;;5116032;28;20108;-79
2021/12/16 03:35:41;;;;;;;36.17;21.65;;;;;;;;;;5116285;28;20066;-81
2021/12/16 03:38:09;;;;;;;36.38;22.08;;;;;;;;;;5116331;28;20122;-80
2021/12/16 03:40:36;;;;;;;34.53;22.35;;;;;;;;;;5116184;28;20122;-80
2021/12/16 03:43:08;;;;;;;36.33;21.55;;;;;;;;;;5116147;28;20092;-80
2021/12/16 03:48:22;;;;;;;39.97;23.73;;;;;;;;;;5116108;28;20048;-81
2021/12/16 03:50:49;;;;;;;38.78;23.08;;;;;;;;;;5116143;28;20392;-80
2021/12/16 03:53:16;;;;;;;34.75;21.83;;;;;;;;;;5115968;28;20082;-81
2021/12/16 03:55:43;;;;;;;36.22;23.55;;;;;;;;;;5115877;28;20048;-81
2021/12/16 03:58:10;;;;;;;42.67;24.35;;;;;;;;;;5115986;28;20489;-82
2021/12/16 04:00:41;;;;;;;41.58;23.58;;;;;;;;;;5116054;28;20050;-81
2021/12/16 04:03:07;;;;;;;41.83;23.70;;;;;;;;;;5115793;28;20078;-81
2021/12/16 04:05:34;;;;;;;42.42;24.05;;;;;;;;;;5115851;28;20039;-81
2021/12/16 04:08:00;;;;;;;38.42;24.25;;;;;;;;;;5115413;28;20043;-81
2021/12/16 04:10:34;;;;;;;34.40;21.88;;;;;;;;;;5115793;28;20044;-80
2021/12/16 04:13:02;;;;;;;39.83;24.48;;;;;;;;;;5115629;28;20472;-80
2021/12/16 04:15:29;;;;;;;38.00;23.52;;;;;;;;;;5097179;28;20052;-80
2021/12/16 04:17:55;;;;;;;41.40;24.23;;;;;;;;;;5115454;28;20044;-81
2021/12/16 04:20:22;;;;;;;43.78;24.90;;;;;;;;;;5115454;28;20047;-81
2021/12/16 04:22:48;;;;;;;37.83;23.45;;;;;;;;;;5097420;28;20054;-81
2021/12/16 04:25:16;;;;;;;40.10;23.88;;;;;;;;;;5097385;28;20051;-80
2021/12/16 04:27:43;;;;;;;38.00;24.05;;;;;;;;;;5097008;28;20126;-79
2021/12/16 04:30:10;;;;;;;41.40;25.00;;;;;;;;;;5115121;28;20048;-80
2021/12/16 04:32:37;;;;;;;43.53;25.90;;;;;;;;;;5115194;28;20043;-81
2021/12/16 04:35:03;;;;;;;40.05;24.67;;;;;;;;;;5096732;28;20396;-80
2021/12/16 04:37:30;;;;;;;41.83;24.75;;;;;;;;;;5115287;28;20108;-80
2021/12/16 04:39:59;;;;;;;43.97;25.67;;;;;;;;;;5115282;28;20291;-80
2021/12/16 04:42:26;;;;;;;42.50;24.02;;;;;;;;;;5115158;28;20062;-81
2021/12/16 04:44:52;;;;;;;41.85;25.60;;;;;;;;;;5096777;28;20043;-81
2021/12/16 04:47:18;;;;;;;49.85;25.40;;;;;;;;;;5096645;28;20541;-80
2021/12/16 04:49:44;;;;;;;48.03;26.90;;;;;;;;;;5096704;28;20473;-80
2021/12/16 04:52:13;;;;;;;44.72;27.05;;;;;;;;;;5115104;28;20119;-81
2021/12/16 04:54:39;;;;;;;45.00;26.45;;;;;;;;;;5096998;28;20035;-81
2021/12/16 04:57:05;;;;;;;40.58;25.90;;;;;;;;;;5115165;28;20035;-81
2021/12/16 04:59:32;;;;;;;40.92;25.20;;;;;;;;;;5114723;28;20126;-80
2021/12/16 05:02:01;;;;;;;43.55;26.90;;;;;;;;;;5096492;28;20130;-80
2021/12/16 05:04:27;;;;;;;44.22;27.63;;;;;;;;;;5114600;28;20043;-82
2021/12/16 05:06:53;;;;;;;40.38;25.60;;;;;;;;;;5114582;28;20043;-80
2021/12/16 05:12:00;;;;;;;40.20;26.48;;;;;;;;;;5096413;28;20100;-80
2021/12/16 05:14:27;;;;;;;40.50;25.85;;;;;;;;;;5114475;28;20043;-80
2021/12/16 05:16:53;;;;;;;43.20;26.75;;;;;;;;;;5114029;28;20058;-79
2021/12/16 05:19:20;;;;;;;46.03;27.45;;;;;;;;;;5114475;28;20542;-80
2021/12/16 05:21:54;;;;;;;44.83;28.00;;;;;;;;;;5114377;28;20050;-80
2021/12/16 05:24:26;;;;;;;41.75;26.13;;;;;;;;;;5114450;28;20107;-81
2021/12/16 05:26:57;;;;;;;44.13;26.95;;;;;;;;;;5079983;28;20086;-80
2021/12/16 05:29:24;;;;;;;50.30;27.98;;;;;;;;;;5114169;28;20126;-80
2021/12/16 05:31:50;;;;;;;44.50;28.27;;;;;;;;;;5114204;28;20039;-80
2021/12/16 05:34:17;;;;;;;44.90;28.30;;;;;;;;;;5096181;28;20088;-80
2021/12/16 05:36:44;;;;;;;45.00;28.27;;;;;;;;;;5113920;28;20043;-81
2021/12/16 05:39:13;;;;;;;43.47;28.05;;;;;;;;;;5095917;28;20097;-81
2021/12/16 05:41:40;;;;;;;45.38;28.42;;;;;;;;;;5113843;28;20050;-81
2021/12/16 05:44:06;;;;;;;48.33;28.67;;;;;;;;;;5113784;28;20051;-80
2021/12/16 05:46:32;;;;;;;45.95;28.35;;;;;;;;;;5113825;28;20046;-80
2021/12/16 05:48:59;;;;;;;47.95;29.63;;;;;;;;;;5113710;28;20043;-81
2021/12/16 05:51:28;;;;;;;44.97;29.08;;;;;;;;;;5113693;28;20042;-81
2021/12/16 05:53:54;;;;;;;48.30;29.05;;;;;;;;;;5095399;28;20039;-80
2021/12/16 05:56:20;;;;;;;45.70;29.00;;;;;;;;;;5113517;28;20050;-81
2021/12/16 05:58:46;;;;;;;46.50;29.30;;;;;;;;;;5113656;28;20040;-81
2021/12/16 06:01:15;;;;;;;50.13;27.55;;;;;;;;;;5113702;28;20496;-79
2021/12/16 06:03:42;;;;;;;48.58;29.75;;;;;;;;;;5095281;28;20043;-80
2021/12/16 06:06:08;;;;;;;50.80;29.63;;;;;;;;;;5113437;28;20092;-81
2021/12/16 06:08:35;;;;;;;48.30;29.25;;;;;;;;;;5113303;28;20043;-80
2021/12/16 06:11:17;;;;;;;47.25;28.92;;;;;;;;;;5113125;28;20053;-80
2021/12/16 06:14:21;;;;;;;52.35;30.13;;;;;;;;;;5095428;28;20040;-80
2021/12/16 06:27:43;;;;;;;50.08;30.02;;;;;;;;;;5092594;28;20136;-80
2021/12/16 06:30:12;;;;;;;52.28;31.15;;;;;;;;;;5092932;28;20044;-79
2021/12/16 06:32:38;;;;;;;51.30;31.35;;;;;;;;;;5092836;28;20036;-80
2021/12/16 06:35:05;;;;;;;51.72;30.90;;;;;;;;;;5091768;28;20044;-80
2021/12/16 06:37:31;;;;;;;51.40;29.50;;;;;;;;;;5092692;28;20126;-80
2021/12/16 06:39:58;;;;;;;50.38;29.67;;;;;;;;;;5091368;28;20044;-79
2021/12/16 06:42:25;;;;;;;50.42;29.65;;;;;;;;;;5091531;28;20040;-81
2021/12/16 06:44:56;;;;;;;56.28;30.55;;;;;;;;;;5092553;28;20044;-80
2021/12/16 06:47:31;;;;;;;50.53;29.30;;;;;;;;;;5074474;28;20441;-81
2021/12/16 06:49:57;;;;;;;45.30;28.38;;;;;;;;;;5093647;28;20048;-80
2021/12/16 06:52:31;;;;;;;48.60;28.92;;;;;;;;;;5095706;28;20465;-80
2021/12/16 06:57:51;;;;;;;50.47;29.15;;;;;;;;;;5095853;28;20040;-80
2021/12/16 07:00:29;;;;;;;60.63;30.30;;;;;;;;;;5096873;28;20040;-80
2021/12/16 07:03:01;;;;;;;47.95;28.80;;;;;;;;;;5096584;28;20093;-80
2021/12/16 07:05:33;;;;;;;49.45;29.38;;;;;;;;;;5095760;28;20056;-79
2021/12/16 07:08:00;;;;;;;49.65;28.67;;;;;;;;;;5096580;28;20048;-80
2021/12/16 07:10:29;;;;;;;53.42;29.48;;;;;;;;;;5095483;28;20076;-79
2021/12/16 07:12:56;;;;;;;54.00;28.90;;;;;;;;;;5096626;28;20047;-79
2021/12/16 07:15:24;;;;;;;46.00;27.52;;;;;;;;;;5102897;28;20090;-81
2021/12/16 07:17:51;;;;;;;53.97;30.05;;;;;;;;;;5098746;28;20221;-79
2021/12/16 07:20:19;;;;;;;47.72;28.75;;;;;;;;;;5116907;28;20442;-79
2021/12/16 07:22:45;;;;;;;50.17;29.70;;;;;;;;;;5116687;28;20051;-80
2021/12/16 07:25:11;;;;;;;54.03;28.77;;;;;;;;;;5116733;28;20209;-80
2021/12/16 07:27:38;;;;;;;52.05;30.30;;;;;;;;;;5116439;28;20043;-82
2021/12/16 07:30:05;;;;;;;50.35;31.10;;;;;;;;;;5098451;28;20108;-80
2021/12/16 07:32:31;;;;;;;44.42;27.73;;;;;;;;;;5098227;28;20082;-81
2021/12/16 07:34:58;;;;;;;51.75;30.17;;;;;;;;;;5116257;28;20041;-80
2021/12/16 07:37:24;;;;;;;53.08;29.15;;;;;;;;;;5115485;28;20047;-79
2021/12/16 07:39:51;;;;;;;48.85;28.42;;;;;;;;;;5115060;28;20477;-80
2021/12/16 07:42:25;;;;;;;56.42;30.25;;;;;;;;;;5098170;28;20084;-79
2021/12/16 07:44:51;;;;;;;61.05;33.17;;;;;;;;;;5115836;28;20626;-81
2021/12/16 07:47:17;;;;;;;61.22;34.17;;;;;;;;;;5115915;28;20120;-79
2021/12/16 07:49:44;;;;;;;70.20;38.08;;;;;;;;;;5115826;28;20069;-79
2021/12/16 07:52:11;;;;;;;64.45;36.42;;;;;;;;;;5116230;28;20043;-80
2021/12/16 07:54:38;;;;;;;61.90;32.85;;;;;;;;;;5097875;28;20075;-80
2021/12/16 07:57:04;;;;;;;58.58;31.75;;;;;;;;;;5097807;28;20054;-80
2021/12/16 07:59:31;;;;;;;54.05;31.30;;;;;;;;;;5115758;28;20484;-80
2021/12/16 08:01:58;;;;;;;52.45;29.73;;;;;;;;;;5115597;28;20119;-81
2021/12/16 08:04:28;;;;;;;53.85;30.10;;;;;;;;;;5097691;28;20035;-82
2021/12/16 08:06:56;;;;;;;52.08;29.90;;;;;;;;;;5097735;28;20054;-83
2021/12/16 08:09:22;;;;;;;52.67;28.80;;;;;;;;;;5115668;28;20039;-81
2021/12/16 08:11:50;;;;;;;56.42;30.50;;;;;;;;;;5097609;28;20122;-84
2021/12/16 08:14:17;;;;;;;55.60;29.98;;;;;;;;;;5081176;28;20531;-82
2021/12/16 08:16:43;;;;;;;57.75;31.27;;;;;;;;;;5093790;28;20158;-81
2021/12/16 08:19:09;;;;;;;59.70;32.45;;;;;;;;;;5094977;28;20048;-83
2021/12/16 08:21:36;;;;;;;64.22;31.55;;;;;;;;;;5094076;28;20127;-80
2021/12/16 08:24:04;;;;;;;61.90;32.58;;;;;;;;;;5095039;28;20044;-79
2021/12/16 08:26:31;;;;;;;57.45;30.13;;;;;;;;;;5094886;28;20043;-80
2021/12/16 08:28:57;;;;;;;64.45;32.63;;;;;;;;;;5094107;28;20454;-80
2021/12/16 08:31:24;;;;;;;61.95;31.52;;;;;;;;;;5095155;28;20389;-80
2021/12/16 08:33:50;;;;;;;55.88;30.85;;;;;;;;;;5093912;28;20358;-80
2021/12/16 08:36:17;;;;;;;57.42;29.58;;;;;;;;;;5094796;28;20044;-80
2021/12/16 08:38:43;;;;;;;53.35;28.05;;;;;;;;;;5094640;28;20123;-80
2021/12/16 08:41:12;;;;;;;56.05;29.67;;;;;;;;;;5094943;28;20089;-81
2021/12/16 08:43:40;;;;;;;51.28;32.00;;;;;;;;;;5094752;28;20040;-80
2021/12/16 08:46:07;;;;;;;59.30;34.28;;;;;;;;;;5094687;28;20093;-80
2021/12/16 08:48:34;;;;;;;50.53;31.30;;;;;;;;;;5093258;28;20481;-80
2021/12/16 08:51:00;;;;;;;53.55;30.75;;;;;;;;;;5093403;28;20050;-80
2021/12/16 08:53:26;;;;;;;50.58;30.90;;;;;;;;;;5094366;28;20066;-80
2021/12/16 08:55:54;;;;;;;51.13;30.00;;;;;;;;;;5094592;28;20048;-80
2021/12/16 08:58:21;;;;;;;60.55;33.80;;;;;;;;;;5094579;28;20044;-80
2021/12/16 09:00:49;;;;;;;61.47;34.10;;;;;;;;;;5094432;28;20036;-81
2021/12/16 09:03:15;;;;;;;53.13;31.88;;;;;;;;;;5094320;28;20043;-80
2021/12/16 09:05:41;;;;;;;51.65;29.63;;;;;;;;;;5094092;28;20036;-80
2021/12/16 09:08:08;;;;;;;52.58;31.05;;;;;;;;;;5094057;28;20420;-79
2021/12/16 09:10:35;;;;;;;54.08;31.38;;;;;;;;;;5094388;28;20047;-80
2021/12/16 09:13:03;;;;;;;68.18;36.78;;;;;;;;;;5093325;28;20135;-80
2021/12/16 09:15:34;;;;;;;61.38;33.53;;;;;;;;;;5101355;28;20112;-81
2021/12/16 09:18:02;;;;;;;64.45;34.75;;;;;;;;;;5114399;28;20044;-80
2021/12/16 09:20:28;;;;;;;62.08;34.78;;;;;;;;;;5114328;28;20066;-81
2021/12/16 09:22:55;;;;;;;68.72;35.40;;;;;;;;;;5114131;28;20104;-80
2021/12/16 09:25:21;;;;;;;63.50;33.65;;;;;;;;;;5114367;28;20043;-80
2021/12/16 09:27:49;;;;;;;58.95;32.08;;;;;;;;;;5095795;28;20042;-80
2021/12/16 09:30:17;;;;;;;60.85;32.88;;;;;;;;;;5114081;28;20047;-80
2021/12/16 09:32:45;;;;;;;67.65;33.05;;;;;;;;;;5114149;28;20422;-80
2021/12/16 09:35:11;;;;;;;79.00;34.53;;;;;;;;;;5113924;28;20039;-79
2021/12/16 09:37:38;;;;;;;65.03;32.22;;;;;;;;;;5113941;28;20429;-80
2021/12/16 09:40:06;;;;;;;62.75;32.22;;;;;;;;;;5114083;28;20040;-80
2021/12/16 09:42:33;;;;;;;78.22;34.92;;;;;;;;;;5095743;28;20130;-80
2021/12/16 09:44:59;;;;;;;69.60;33.80;;;;;;;;;;5113928;28;20400;-80
2021/12/16 09:47:27;;;;;;;74.57;34.35;;;;;;;;;;5113531;28;20187;-80
2021/12/16 09:49:53;;;;;;;70.20;33.03;;;;;;;;;;5095688;28;20103;-79
2021/12/16 09:52:19;;;;;;;80.50;35.08;;;;;;;;;;5078780;28;20048;-80
2021/12/16 09:54:46;;;;;;;74.45;33.67;;;;;;;;;;5113762;28;20036;-80
2021/12/16 09:57:14;;;;;;;76.25;35.08;;;;;;;;;;5113581;28;20043;-82
2021/12/16 09:59:40;;;;;;;70.90;33.85;;;;;;;;;;5113627;28;20553;-80
2021/12/16 10:02:09;;;;;;;66.93;34.33;;;;;;;;;;5113514;28;20046;-79
2021/12/16 10:04:36;;;;;;;77.18;34.10;;;;;;;;;;5113737;28;20043;-80
2021/12/16 10:07:16;;;;;;;72.97;33.28;;;;;;;;;;5113465;28;20043;-80
2021/12/16 10:09:44;;;;;;;72.80;34.17;;;;;;;;;;5113339;28;20657;-79
2021/12/16 10:12:12;;;;;;;65.72;31.20;;;;;;;;;;5113321;28;20044;-80
2021/12/16 10:17:31;;;;;;;89.20;33.50;;;;;;;;;;5113386;28;20605;-80
2021/12/16 10:19:59;;;;;;;91.20;34.15;;;;;;;;;;5095236;28;20097;-80
2021/12/16 10:22:29;;;;;;;88.07;33.95;;;;;;;;;;5113328;28;20036;-80
2021/12/16 10:24:57;;;;;;;69.13;30.67;;;;;;;;;;5113126;28;20059;-79
2021/12/16 10:27:25;;;;;;;92.13;34.10;;;;;;;;;;5112981;28;20149;-79
2021/12/16 10:29:56;;;;;;;96.45;33.88;;;;;;;;;;5113184;28;20503;-80
2021/12/16 10:32:35;;;;;;;139.05;35.83;;;;;;;;;;5078448;28;20534;-79
2021/12/16 10:35:04;;;;;;;142.25;37.05;;;;;;;;;;5113222;28;20035;-79
2021/12/16 10:37:32;;;;;;;118.07;35.95;;;;;;;;;;5113098;28;20048;-81
2021/12/16 10:40:16;;;;;;;124.65;36.08;;;;;;;;;;5113974;27;20122;-77
2021/12/16 10:42:44;;;;;;;136.38;38.03;;;;;;;;;;5128041;27;20055;-80
2021/12/16 10:45:25;;;;;;;119.18;36.55;;;;;;;;;;5123085;28;20043;-81
2021/12/16 10:48:10;;;;;;;78.63;31.58;;;;;;;;;;5130591;28;20039;-80
2021/12/16 10:50:48;;;;;;;120.70;35.95;;;;;;;;;;5107432;28;20104;-80
2021/12/16 10:53:14;;;;;;;96.38;34.40;;;;;;;;;;5111641;28;20091;-80
2021/12/16 10:56:00;;;;;;;75.20;33.17;;;;;;;;;;5133164;28;20070;-80
2021/12/16 10:58:45;;;;;;;104.13;35.83;;;;;;;;;;5128103;28;20071;-80
2021/12/16 11:01:30;;;;;;;114.53;35.53;;;;;;;;;;5116173;28;20035;-80
2021/12/16 11:03:56;;;;;;;83.35;30.67;;;;;;;;;;5094616;28;20050;-79
2021/12/16 11:06:26;;;;;;;110.43;32.47;;;;;;;;;;5112619;28;20082;-79
2021/12/16 11:08:53;;;;;;;85.82;32.17;;;;;;;;;;5094511;28;20040;-80
2021/12/16 11:11:26;;;;;;;118.80;33.28;;;;;;;;;;5112992;28;20544;-80
2021/12/16 11:14:02;;;;;;;72.07;28.23;;;;;;;;;;5112841;28;20043;-80
2021/12/16 11:16:36;;;;;;;88.72;29.58;;;;;;;;;;5090825;28;20541;-80
2021/12/16 11:19:03;;;;;;;91.93;29.48;;;;;;;;;;5092198;28;20366;-81
2021/12/16 11:21:40;;;;;;;85.72;26.98;;;;;;;;;;5092182;28;20123;-80
2021/12/16 11:24:25;;;;;;;120.90;29.08;;;;;;;;;;5092168;28;20040;-79
2021/12/16 11:26:51;;;;;;;63.75;27.90;;;;;;;;;;5091981;28;20044;-80
2021/12/16 11:29:18;;;;;;;87.63;30.20;;;;;;;;;;5091122;28;20477;-76
2021/12/16 11:31:45;;;;;;;157.27;32.90;;;;;;;;;;5091970;28;20158;-79
2021/12/16 11:34:11;;;;;;;69.95;29.88;;;;;;;;;;5091891;28;20044;-80
2021/12/16 11:36:40;;;;;;;65.55;30.00;;;;;;;;;;5077231;28;20048;-80
2021/12/16 11:39:09;;;;;;;98.03;34.13;;;;;;;;;;5095049;28;20055;-80
2021/12/16 11:41:49;;;;;;;81.40;33.92;;;;;;;;;;5094939;28;20051;-80
2021/12/16 11:44:23;;;;;;;83.93;32.63;;;;;;;;;;5095666;28;20046;-81
2021/12/16 11:46:55;;;;;;;94.97;33.17;;;;;;;;;;5095814;28;20044;-81
2021/12/16 11:49:27;;;;;;;88.90;34.53;;;;;;;;;;5095491;28;20036;-81
2021/12/16 11:52:05;;;;;;;90.57;33.50;;;;;;;;;;5095312;28;20040;-80
2021/12/16 11:54:40;;;;;;;79.75;32.30;;;;;;;;;;5094397;28;20473;-80
2021/12/16 11:57:18;;;;;;;78.13;32.00;;;;;;;;;;5095735;28;20044;-81
2021/12/16 11:59:47;;;;;;;68.82;32.53;;;;;;;;;;5095621;28;20055;-79
2021/12/16 12:02:39;;;;;;;81.68;33.88;;;;;;;;;;5095233;28;20497;-73
2021/12/16 12:05:14;;;;;;;92.28;33.90;;;;;;;;;;5063230;28;20374;-72
2021/12/16 12:07:42;;;;;;;82.70;34.60;;;;;;;;;;5104287;28;20180;-74
2021/12/16 12:10:08;;;;;;;74.93;34.70;;;;;;;;;;5115607;28;20052;-79
2021/12/16 12:12:42;;;;;;;78.25;33.15;;;;;;;;;;5097475;28;20042;-80
2021/12/16 12:15:09;;;;;;;70.80;32.78;;;;;;;;;;5119832;27;20055;-79
2021/12/16 12:17:49;;;;;;;70.70;31.23;;;;;;;;;;5135206;27;20130;-79
2021/12/16 12:20:15;;;;;;;71.63;32.90;;;;;;;;;;5115483;28;20054;-79
2021/12/16 12:22:41;;;;;;;75.55;33.13;;;;;;;;;;5115522;28;20421;-80
2021/12/16 12:25:07;;;;;;;65.45;32.13;;;;;;;;;;5114764;28;20500;-80
2021/12/16 12:27:33;;;;;;;53.88;28.50;;;;;;;;;;5114938;28;20086;-79
2021/12/16 12:30:01;;;;;;;54.97;28.55;;;;;;;;;;5130475;27;20046;-79
2021/12/16 12:32:30;;;;;;;59.17;28.33;;;;;;;;;;5134132;27;20717;-77
2021/12/16 12:35:07;;;;;;;53.75;28.20;;;;;;;;;;5135929;27;20043;-79
2021/12/16 12:37:34;;;;;;;56.70;27.17;;;;;;;;;;5131224;27;20045;-79
2021/12/16 12:40:09;;;;;;;52.42;27.23;;;;;;;;;;5115140;28;20044;-79
2021/12/16 12:42:36;;;;;;;51.42;26.48;;;;;;;;;;5080358;28;20043;-81
2021/12/16 12:45:04;;;;;;;56.67;28.88;;;;;;;;;;5115316;28;20039;-80
2021/12/16 12:47:34;;;;;;;59.53;29.38;;;;;;;;;;5115301;28;20066;-79
2021/12/16 12:50:17;;;;;;;59.22;29.35;;;;;;;;;;5114962;28;20393;-78
2021/12/16 12:52:49;;;;;;;65.68;29.60;;;;;;;;;;5082463;27;20078;-80
2021/12/16 12:55:19;;;;;;;70.55;29.10;;;;;;;;;;5107900;28;20051;-79
2021/12/16 12:57:46;;;;;;;61.65;28.42;;;;;;;;;;5130923;27;20196;-80
2021/12/16 13:00:31;;;;;;;58.72;29.45;;;;;;;;;;5114383;27;20384;-79
2021/12/16 13:03:01;;;;;;;66.95;29.65;;;;;;;;;;5114400;28;20043;-80
2021/12/16 13:05:28;;;;;;;59.10;28.88;;;;;;;;;;5117889;27;20039;-80
2021/12/16 13:07:58;;;;;;;61.15;28.73;;;;;;;;;;5135173;27;20075;-79
2021/12/16 13:10:29;;;;;;;67.22;28.13;;;;;;;;;;5132781;27;20051;-79
2021/12/16 13:13:23;;;;;;;59.13;28.88;;;;;;;;;;5114663;28;20035;-79
2021/12/16 13:15:56;;;;;;;52.33;26.52;;;;;;;;;;5119123;27;20116;-77
2021/12/16 13:27:24;;;;;;;52.63;24.40;;;;;;;;;;5129500;27;20043;-78
2021/12/16 13:30:39;;;;;;;47.45;24.15;;;;;;;;;;5116346;27;20055;-78
2021/12/16 13:33:01;;;;;;;54.38;24.73;;;;;;;;;;5105333;28;20050;-80
2021/12/16 13:35:35;;;;;;;55.58;24.60;;;;;;;;;;5099185;27;20047;-79
2021/12/16 13:38:07;;;;;;;50.15;25.40;;;;;;;;;;5134492;27;20126;-79
2021/12/16 13:40:35;;;;;;;48.05;25.40;;;;;;;;;;5112196;28;20620;-78
2021/12/16 13:43:05;;;;;;;55.13;24.42;;;;;;;;;;5113752;28;20083;-79
2021/12/16 13:45:59;;;;;;;48.10;24.13;;;;;;;;;;5095673;28;20062;-79
2021/12/16 14:02:26;;;;;;;54.85;24.10;;;;;;;;;;5113646;27;20123;-80
2021/12/16 14:05:18;;;;;;;44.78;21.70;;;;;;;;;;5113492;28;20122;-79
2021/12/16 14:10:22;;;;;;;49.05;23.17;;;;;;;;;;5113120;27;20173;-79
2021/12/16 14:24:41;;;;;;;46.08;20.42;;;;;;;;;;5115297;27;20047;-78
2021/12/16 14:27:06;;;;;;;44.00;21.45;;;;;;;;;;5129153;27;20518;-80
2021/12/16 14:35:06;;;;;;;43.45;20.90;;;;;;;;;;5133588;27;20054;-79
2021/12/16 14:37:46;;;;;;;45.55;20.70;;;;;;;;;;5115457;27;20039;-79
2021/12/16 14:40:36;;;;;;;44.08;19.83;;;;;;;;;;5133575;27;20043;-80
2021/12/16 14:48:28;;;;;;;42.90;20.43;;;;;;;;;;5133537;28;20039;-80
2021/12/16 14:51:05;;;;;;;51.42;23.10;;;;;;;;;;5133479;28;20047;-79
2021/12/16 14:53:33;;;;;;;53.95;23.95;;;;;;;;;;5133191;28;20035;-79
2021/12/16 14:56:20;;;;;;;47.88;22.50;;;;;;;;;;5133144;28;20163;-78
2021/12/16 14:58:52;;;;;;;51.80;23.20;;;;;;;;;;5133285;28;20043;-79
2021/12/16 15:01:21;;;;;;;50.17;21.88;;;;;;;;;;5133345;28;20122;-79
2021/12/16 15:03:48;;;;;;;51.22;22.98;;;;;;;;;;5133370;28;20039;-79
2021/12/16 15:06:19;;;;;;;55.08;23.90;;;;;;;;;;5133197;28;20035;-80
2021/12/16 15:11:28;;;;;;;51.35;23.17;;;;;;;;;;5135759;27;20046;-79
2021/12/16 15:13:59;;;;;;;56.80;22.90;;;;;;;;;;5118975;27;20532;-79
2021/12/16 15:38:32;;;;;;;75.97;27.23;;;;;;;;;;5136928;27;20046;-79
2021/12/16 15:43:51;;;;;;;66.57;27.17;;;;;;;;;;5136674;27;20050;-80
2021/12/16 15:46:17;;;;;;;77.55;27.80;;;;;;;;;;5136939;27;20047;-79
2021/12/16 15:48:47;;;;;;;65.60;25.70;;;;;;;;;;5136818;27;20042;-79
2021/12/16 15:51:13;;;;;;;75.15;28.00;;;;;;;;;;5136701;27;20039;-79
2021/12/16 15:53:40;;;;;;;73.50;27.60;;;;;;;;;;5136533;27;20039;-79
2021/12/16 15:56:15;;;;;;;62.45;26.73;;;;;;;;;;5136497;27;20438;-80
2021/12/16 15:58:43;;;;;;;71.25;26.58;;;;;;;;;;5136387;27;20476;-79
2021/12/16 16:01:12;;;;;;;66.57;25.45;;;;;;;;;;5136529;27;20054;-80
2021/12/16 16:03:39;;;;;;;68.03;27.08;;;;;;;;;;5136530;27;20043;-80
2021/12/16 16:06:07;;;;;;;70.13;26.98;;;;;;;;;;5136544;27;20043;-79
2021/12/16 16:08:38;;;;;;;79.00;27.50;;;;;;;;;;5136250;27;20039;-79
2021/12/16 16:11:07;;;;;;;80.90;28.27;;;;;;;;;;5136313;27;20035;-78
2021/12/16 16:13:38;;;;;;;84.22;29.10;;;;;;;;;;5118288;27;20046;-78
2021/12/16 16:16:06;;;;;;;66.90;26.75;;;;;;;;;;5136077;27;20134;-78
2021/12/16 16:18:35;;;;;;;76.18;27.05;;;;;;;;;;5136122;27;20043;-79
2021/12/16 16:21:04;;;;;;;95.03;28.50;;;;;;;;;;5135611;27;20054;-79
2021/12/16 16:23:31;;;;;;;83.60;28.08;;;;;;;;;;5136061;27;20046;-79
2021/12/16 16:25:57;;;;;;;90.00;27.55;;;;;;;;;;5136278;27;20078;-80
2021/12/16 16:28:25;;;;;;;112.50;28.90;;;;;;;;;;5117707;27;20069;-80
2021/12/16 16:30:53;;;;;;;112.93;28.77;;;;;;;;;;5135803;27;20035;-79
2021/12/16 16:33:21;;;;;;;128.98;30.52;;;;;;;;;;5135813;27;20277;-80
2021/12/16 16:35:50;;;;;;;109.03;25.88;;;;;;;;;;5135622;27;20484;-80
2021/12/16 16:38:22;;;;;;;93.07;25.70;;;;;;;;;;5135644;27;20127;-79
2021/12/16 16:40:49;;;;;;;135.23;26.15;;;;;;;;;;5135839;27;20483;-80
2021/12/16 16:43:27;;;;;;;105.15;24.42;;;;;;;;;;5135867;27;20061;-80
2021/12/16 16:45:54;;;;;;;110.10;23.92;;;;;;;;;;5135518;27;20035;-78
2021/12/16 16:51:09;;;;;;;115.38;25.23;;;;;;;;;;5135686;27;20050;-78
2021/12/16 16:53:44;;;;;;;96.97;24.45;;;;;;;;;;5135590;27;20043;-79
2021/12/16 16:56:10;;;;;;;77.18;24.08;;;;;;;;;;5135198;27;20082;-78
2021/12/16 16:58:36;;;;;;;154.30;26.17;;;;;;;;;;5135323;27;20039;-79
2021/12/16 17:01:03;;;;;;;124.68;25.52;;;;;;;;;;5116781;27;20125;-79
2021/12/16 17:03:30;;;;;;;107.05;24.27;;;;;;;;;;5135390;27;20115;-80
2021/12/16 17:06:03;;;;;;;85.18;23.95;;;;;;;;;;5135119;27;20392;-80
2021/12/16 17:08:36;;;;;;;99.97;25.52;;;;;;;;;;5135028;27;20039;-80
2021/12/16 17:11:05;;;;;;;87.28;24.38;;;;;;;;;;5116857;27;20043;-80
2021/12/16 17:18:35;;;;;;;105.13;26.65;;;;;;;;;;5135052;27;20050;-79
2021/12/16 17:21:11;;;;;;;215.70;29.50;;;;;;;;;;5134913;27;20099;-78
2021/12/16 17:23:38;;;;;;;150.85;27.98;;;;;;;;;;5134818;27;20504;-78
2021/12/16 17:26:19;;;;;;;110.30;25.70;;;;;;;;;;5134527;27;20051;-80
2021/12/16 17:28:50;;;;;;;144.93;27.33;;;;;;;;;;5134526;27;20035;-80
2021/12/16 17:31:16;;;;;;;135.45;26.55;;;;;;;;;;5134652;27;20145;-79
2021/12/16 17:33:42;;;;;;;230.32;29.15;;;;;;;;;;5115461;27;20039;-80
2021/12/16 17:36:08;;;;;;;238.52;29.35;;;;;;;;;;5134465;27;20043;-79
2021/12/16 17:38:34;;;;;;;137.55;26.83;;;;;;;;;;5134488;27;20392;-80
2021/12/16 17:41:03;;;;;;;110.25;28.05;;;;;;;;;;5134548;27;20131;-79
2021/12/16 17:43:31;;;;;;;195.43;29.70;;;;;;;;;;5134633;27;20047;-78
2021/12/16 17:46:06;;;;;;;123.28;28.25;;;;;;;;;;5134471;27;20039;-77
2021/12/16 17:48:34;;;;;;;236.20;36.70;;;;;;;;;;5134333;27;20042;-79
2021/12/16 17:51:12;;;;;;;209.90;63.03;;;;;;;;;;5134113;27;20205;-80
2021/12/16 17:53:44;;;;;;;285.88;92.47;;;;;;;;;;5134420;27;20123;-79
2021/12/16 17:56:10;;;;;;;252.63;49.67;;;;;;;;;;5134242;27;20373;-79
2021/12/16 17:58:38;;;;;;;275.48;87.88;;;;;;;;;;5116056;27;20032;-78
2021/12/16 18:01:20;;;;;;;377.40;111.10;;;;;;;;;;5134145;27;20115;-79
2021/12/16 18:03:55;;;;;;;252.93;75.65;;;;;;;;;;5134087;27;20038;-79
2021/12/16 18:06:25;;;;;;;199.30;70.10;;;;;;;;;;5134080;27;20043;-79
2021/12/16 18:08:57;;;;;;;195.73;81.63;;;;;;;;;;5134057;27;20047;-79
2021/12/16 18:11:23;;;;;;;;;;;;;;;;;;5134438;27;20051;-80
2021/12/16 18:14:01;;;;;;;166.13;57.15;;;;;;;;;;5133914;27;19915;-80
2021/12/16 18:16:29;;;;;;;146.13;38.63;;;;;;;;;;5115353;27;20051;-79
2021/12/16 18:18:57;;;;;;;117.38;33.95;;;;;;;;;;5115560;27;20127;-79
2021/12/16 18:21:24;;;;;;;143.23;50.58;;;;;;;;;;5115175;27;20043;-78
2021/12/16 18:23:57;;;;;;;143.43;51.38;;;;;;;;;;5133652;27;20411;-80